Time;durP1;ratioP1;P1;durP2;ratioP2;P2;SDS_P1;SDS_P2;PMS_P1;PMS_P2;Temp;Humidity;BMP_temperature;BMP_pressure;BME280_temperature;BME280_humidity;BME280_pressure;Samples;Min_cycle;Max_cycle;Signal;HPM_P1;HPM_P2
2024/03/21 00:01:39;;;;;;;51.00;28.50;;;;;;;3.17;99.10;101255.83;104647;1273;100080;-76
2024/03/21 00:04:24;;;;;;;40.00;23.10;;;;;;;3.15;99.16;101257.20;104577;1268;98047;-77
2024/03/21 00:07:11;;;;;;;43.90;24.80;;;;;;;3.11;99.39;101254.97;104642;1273;98034;-77
2024/03/21 00:09:56;;;;;;;44.20;25.50;;;;;;;3.09;99.50;101249.32;104651;1268;98142;-78
2024/03/21 00:12:42;;;;;;;43.00;24.60;;;;;;;3.06;99.15;101246.22;104631;1268;103353;-77
2024/03/21 00:15:28;;;;;;;36.80;22.20;;;;;;;3.02;98.95;101244.26;104627;1268;101347;-77
2024/03/21 00:18:14;;;;;;;34.70;21.50;;;;;;;2.99;99.12;101247.89;104600;1271;98001;-78
2024/03/21 00:21:00;;;;;;;40.20;23.10;;;;;;;2.96;99.09;101244.24;104635;1268;98017;-77
2024/03/21 00:23:45;;;;;;;33.90;19.80;;;;;;;2.93;99.06;101240.27;104696;1277;97995;-77
2024/03/21 00:26:30;;;;;;;35.60;21.60;;;;;;;2.89;99.01;101240.55;104606;1270;101397;-77
2024/03/21 00:29:16;;;;;;;40.80;24.10;;;;;;;2.86;98.94;101237.97;104648;1270;100136;-77
2024/03/21 00:32:01;;;;;;;38.40;23.70;;;;;;;2.85;99.24;101235.62;104589;1269;98446;-78
2024/03/21 00:34:46;;;;;;;40.90;22.50;;;;;;;2.83;99.28;101240.34;104604;1273;99164;-77
2024/03/21 00:37:32;;;;;;;42.50;23.60;;;;;;;2.81;99.37;101240.17;104613;1273;98769;-77
2024/03/21 00:40:17;;;;;;;43.30;24.90;;;;;;;2.81;99.85;101240.15;104642;1268;102271;-78
2024/03/21 00:43:02;;;;;;;44.90;25.70;;;;;;;2.83;100.00;101237.67;104554;1273;99128;-78
2024/03/21 00:45:48;;;;;;;43.80;24.40;;;;;;;2.86;100.00;101239.04;104582;1270;97977;-78
2024/03/21 00:48:34;;;;;;;42.10;24.80;;;;;;;2.89;100.00;101235.85;104749;1271;98017;-78
2024/03/21 00:51:19;;;;;;;51.80;27.50;;;;;;;2.91;100.00;101232.12;104663;1271;98036;-77
2024/03/21 00:54:05;;;;;;;51.50;27.80;;;;;;;2.93;100.00;101231.06;104609;1270;102104;-78
2024/03/21 00:56:51;;;;;;;47.80;26.30;;;;;;;2.95;100.00;101231.22;104713;1274;99137;-78
2024/03/21 00:59:36;;;;;;;47.20;27.30;;;;;;;2.97;100.00;101228.77;105072;1269;98018;-77
2024/03/21 01:02:22;;;;;;;49.10;27.00;;;;;;;2.98;100.00;101222.68;104711;1273;98111;-77
2024/03/21 01:05:08;;;;;;;50.40;26.10;;;;;;;2.99;100.00;101221.56;104659;1273;98607;-77
2024/03/21 01:07:53;;;;;;;52.80;27.90;;;;;;;3.00;100.00;101216.38;104822;1270;102008;-77
2024/03/21 01:10:49;;;;;;;53.70;28.00;;;;;;;3.01;100.00;101213.10;104624;1269;99330;-76
2024/03/21 01:13:35;;;;;;;48.40;27.30;;;;;;;3.02;100.00;101210.92;104651;1274;98042;-77
2024/03/21 01:16:20;;;;;;;48.90;28.80;;;;;;;3.03;100.00;101207.14;104857;1273;98040;-76
2024/03/21 01:19:06;;;;;;;48.10;29.10;;;;;;;3.03;100.00;101201.80;104758;1272;97998;-78
2024/03/21 01:21:51;;;;;;;52.70;28.40;;;;;;;3.01;100.00;101197.92;104832;1273;101374;-79
2024/03/21 01:24:37;;;;;;;52.40;29.70;;;;;;;3.02;100.00;101192.25;104564;1273;99126;-78
2024/03/21 01:27:23;;;;;;;53.50;28.50;;;;;;;3.00;100.00;101186.19;104642;1270;98536;-78
2024/03/21 01:30:09;;;;;;;54.40;31.20;;;;;;;3.00;100.00;101182.86;104621;1271;98154;-78
2024/03/21 01:32:54;;;;;;;62.50;33.90;;;;;;;3.01;100.00;101182.42;104590;1268;98453;-78
2024/03/21 01:35:40;;;;;;;54.10;31.30;;;;;;;2.99;100.00;101178.88;104683;1273;102653;-78
2024/03/21 01:38:25;;;;;;;59.30;33.40;;;;;;;2.97;100.00;101175.15;104512;1273;100125;-77
2024/03/21 01:41:11;;;;;;;58.70;32.20;;;;;;;2.97;100.00;101173.26;104496;1273;98589;-77
2024/03/21 01:43:56;;;;;;;61.90;34.40;;;;;;;2.96;100.00;101174.73;104443;1271;98982;-78
2024/03/21 01:46:42;;;;;;;59.20;34.00;;;;;;;2.95;100.00;101178.71;104680;1273;97822;-75
2024/03/21 01:49:28;;;;;;;64.10;34.50;;;;;;;2.94;100.00;101178.59;104509;1271;102503;-78
2024/03/21 01:52:13;;;;;;;62.40;35.50;;;;;;;2.94;100.00;101175.77;104749;1272;99150;-77
2024/03/21 01:54:59;;;;;;;57.10;31.90;;;;;;;2.94;100.00;101171.59;104676;1271;97925;-76
2024/03/21 01:57:45;;;;;;;64.20;34.20;;;;;;;2.93;100.00;101172.55;104747;1271;98053;-79
2024/03/21 02:00:30;;;;;;;64.40;34.40;;;;;;;2.91;100.00;101175.68;104850;1275;98468;-77
2024/03/21 02:03:16;;;;;;;61.60;35.50;;;;;;;2.90;100.00;101178.08;104705;1270;101401;-77
2024/03/21 02:06:02;;;;;;;66.20;34.90;;;;;;;2.88;100.00;101184.02;104713;1268;99124;-77
2024/03/21 02:08:48;;;;;;;63.40;33.70;;;;;;;2.86;100.00;101189.46;104740;1271;98008;-76
2024/03/21 02:11:33;;;;;;;61.80;33.70;;;;;;;2.85;100.00;101188.50;104558;1273;99275;-77
2024/03/21 02:14:22;;;;;;;59.80;34.30;;;;;;;2.84;100.00;101181.20;104712;1271;97992;-78
2024/03/21 02:17:07;;;;;;;59.30;33.50;;;;;;;2.83;100.00;101179.31;104626;1273;101502;-78
2024/03/21 02:19:53;;;;;;;57.70;32.30;;;;;;;2.81;100.00;101178.23;104640;1273;101351;-78
2024/03/21 02:22:38;;;;;;;60.30;33.90;;;;;;;2.79;100.00;101178.58;104709;1268;99022;-78
2024/03/21 02:25:24;;;;;;;55.60;32.40;;;;;;;2.77;100.00;101178.06;104706;1273;98008;-76
2024/03/21 02:28:09;;;;;;;57.60;30.20;;;;;;;2.76;100.00;101177.09;104674;1272;97997;-78
2024/03/21 02:30:55;;;;;;;58.60;31.50;;;;;;;2.75;100.00;101179.45;104694;1273;101358;-77
2024/03/21 02:33:40;;;;;;;57.60;31.60;;;;;;;2.74;100.00;101179.50;104635;1271;100384;-76
2024/03/21 02:36:26;;;;;;;50.90;30.30;;;;;;;2.73;100.00;101183.52;104652;1273;99415;-77
2024/03/21 02:39:12;;;;;;;57.00;29.90;;;;;;;2.72;100.00;101185.00;104635;1271;98091;-78
2024/03/21 02:41:57;;;;;;;60.90;31.00;;;;;;;2.69;100.00;101186.65;104642;1270;98559;-77
2024/03/21 02:44:43;;;;;;;49.80;29.20;;;;;;;2.67;100.00;101189.11;104751;1273;101846;-78
2024/03/21 02:47:28;;;;;;;54.60;31.10;;;;;;;2.66;100.00;101189.52;104713;1271;100822;-79
2024/03/21 02:50:14;;;;;;;52.20;30.00;;;;;;;2.64;100.00;101190.58;104643;1271;99637;-77
2024/03/21 02:53:02;;;;;;;53.50;30.40;;;;;;;2.61;100.00;101186.39;104668;1273;97899;-78
2024/03/21 02:55:47;;;;;;;55.00;31.60;;;;;;;2.58;100.00;101184.88;104615;1273;98455;-77
2024/03/21 02:58:32;;;;;;;57.70;32.10;;;;;;;2.57;100.00;101182.64;104591;1273;101341;-77
2024/03/21 03:01:18;;;;;;;61.70;31.80;;;;;;;2.57;100.00;101185.69;104573;1271;100380;-78
2024/03/21 03:04:04;;;;;;;52.70;30.40;;;;;;;2.56;100.00;101185.05;104817;1273;98967;-76
2024/03/21 03:06:50;;;;;;;56.70;31.50;;;;;;;2.54;100.00;101180.14;104617;1271;97931;-77
2024/03/21 03:09:35;;;;;;;59.90;32.40;;;;;;;2.52;100.00;101179.36;104594;1271;98527;-77
2024/03/21 03:12:21;;;;;;;58.10;32.60;;;;;;;2.52;100.00;101178.34;104660;1271;102631;-77
2024/03/21 03:15:06;;;;;;;57.70;31.20;;;;;;;2.51;100.00;101173.45;104695;1273;99401;-79
2024/03/21 03:17:51;;;;;;;66.90;33.50;;;;;;;2.51;100.00;101173.49;104720;1273;98524;-78
2024/03/21 03:20:37;;;;;;;56.70;31.50;;;;;;;2.51;100.00;101173.48;104537;1269;98383;-78
2024/03/21 03:23:23;;;;;;;57.00;32.00;;;;;;;2.50;100.00;101172.83;104661;1273;98589;-78
2024/03/21 03:26:08;;;;;;;54.80;30.20;;;;;;;2.51;100.00;101167.68;104606;1287;101453;-78
2024/03/21 03:28:53;;;;;;;57.50;31.90;;;;;;;2.51;100.00;101164.14;104762;1268;99192;-76
2024/03/21 03:31:41;;;;;;;62.30;34.90;;;;;;;2.51;100.00;101163.47;104640;1272;98333;-78
2024/03/21 03:37:34;;;;;;;63.30;34.80;;;;;;;2.44;100.00;101156.42;104557;1271;98447;-76
2024/03/21 03:40:21;;;;;;;65.50;33.20;;;;;;;2.41;100.00;101152.55;104542;1273;102761;-77
2024/03/21 03:43:07;;;;;;;60.90;32.50;;;;;;;2.41;100.00;101153.48;104848;1271;99141;-79
2024/03/21 03:45:52;;;;;;;64.10;32.50;;;;;;;2.41;100.00;101155.98;104788;1273;97929;-78
2024/03/21 03:48:37;;;;;;;68.10;36.20;;;;;;;2.40;100.00;101153.90;104859;1273;97909;-78
2024/03/21 03:51:23;;;;;;;64.30;35.20;;;;;;;2.39;100.00;101151.02;104842;1275;98532;-79
2024/03/21 03:54:08;;;;;;;65.00;32.90;;;;;;;2.37;100.00;101157.32;104912;1273;102441;-78
2024/03/21 03:56:53;;;;;;;61.00;32.50;;;;;;;2.36;100.00;101161.77;104873;1273;99571;-79
2024/03/21 03:59:39;;;;;;;61.00;33.20;;;;;;;2.36;100.00;101167.61;104726;1270;99009;-79
2024/03/21 04:02:27;;;;;;;58.70;32.40;;;;;;;2.34;100.00;101170.02;104709;1271;97982;-78
2024/03/21 04:05:15;;;;;;;61.70;33.50;;;;;;;2.33;100.00;101174.52;104895;1274;99794;-79
2024/03/21 04:08:00;;;;;;;67.10;33.80;;;;;;;2.32;100.00;101180.39;104836;1271;101730;-79
2024/03/21 04:10:45;;;;;;;61.30;33.90;;;;;;;2.31;100.00;101184.16;104772;1273;100376;-80
2024/03/21 04:13:31;;;;;;;57.50;31.40;;;;;;;2.29;100.00;101187.15;104540;1273;97997;-76
2024/03/21 04:16:18;;;;;;;59.70;33.80;;;;;;;2.26;100.00;101189.90;104585;1269;97942;-77
2024/03/21 04:19:03;;;;;;;58.40;33.40;;;;;;;2.23;100.00;101186.06;104651;1271;98511;-78
2024/03/21 04:21:49;;;;;;;61.50;31.70;;;;;;;2.21;100.00;101185.34;104716;1273;101329;-77
2024/03/21 04:24:36;;;;;;;59.60;33.60;;;;;;;2.19;100.00;101181.10;104592;1273;99159;-77
2024/03/21 04:27:22;;;;;;;58.80;32.90;;;;;;;2.18;100.00;101179.26;104622;1273;98522;-77
2024/03/21 04:30:07;;;;;;;65.30;33.90;;;;;;;2.17;100.00;101177.77;104599;1273;98033;-77
2024/03/21 04:32:53;;;;;;;67.10;35.30;;;;;;;2.15;100.00;101180.88;104675;1271;97998;-77
2024/03/21 04:35:39;;;;;;;59.40;35.50;;;;;;;2.14;100.00;101176.41;104574;1274;101407;-78
2024/03/21 04:38:25;;;;;;;63.50;35.50;;;;;;;2.14;100.00;101174.48;104582;1271;99107;-77
2024/03/21 04:41:10;;;;;;;65.90;34.60;;;;;;;2.13;100.00;101170.30;104493;1273;97998;-76
2024/03/21 04:43:55;;;;;;;62.30;35.40;;;;;;;2.13;100.00;101171.90;104690;1270;97985;-77
2024/03/21 04:46:41;;;;;;;75.10;40.00;;;;;;;2.12;100.00;101169.83;104731;1273;98037;-76
2024/03/21 04:49:26;;;;;;;66.10;39.20;;;;;;;2.10;100.00;101166.27;104535;1271;102181;-77
2024/03/21 04:52:12;;;;;;;68.60;35.80;;;;;;;2.09;100.00;101160.77;104563;1273;100393;-78
2024/03/21 04:54:58;;;;;;;71.90;38.20;;;;;;;2.08;100.00;101162.24;104622;1273;98840;-77
2024/03/21 04:57:46;;;;;;;83.70;50.10;;;;;;;2.07;100.00;101171.33;104597;1273;97986;-77
2024/03/21 05:00:31;;;;;;;81.70;45.90;;;;;;;2.07;100.00;101177.83;104541;1273;97890;-77
2024/03/21 05:03:17;;;;;;;73.50;41.50;;;;;;;2.06;100.00;101178.59;104640;1272;103403;-77
2024/03/21 05:06:06;;;;;;;71.00;39.30;;;;;;;2.06;100.00;101179.86;104561;1273;100610;-77
2024/03/21 05:08:51;;;;;;;66.10;37.50;;;;;;;2.07;100.00;101186.48;104740;1274;98063;-78
2024/03/21 05:11:36;;;;;;;67.40;38.20;;;;;;;2.06;100.00;101190.92;104603;1273;98018;-78
2024/03/21 05:14:22;;;;;;;61.70;35.30;;;;;;;2.06;100.00;101192.70;104621;1276;98519;-76
2024/03/21 05:17:09;;;;;;;68.90;38.70;;;;;;;2.08;100.00;101193.82;104668;1274;101416;-78
2024/03/21 05:19:55;;;;;;;74.60;40.30;;;;;;;2.10;100.00;101195.41;104626;1270;101412;-77
2024/03/21 05:22:41;;;;;;;81.60;44.30;;;;;;;2.12;100.00;101197.86;104546;1271;98519;-77
2024/03/21 05:25:26;;;;;;;76.70;40.50;;;;;;;2.15;100.00;101198.19;104547;1277;97977;-78
2024/03/21 05:28:12;;;;;;;65.00;38.60;;;;;;;2.17;100.00;101200.64;104732;1271;98559;-78
2024/03/21 05:30:57;;;;;;;66.40;36.50;;;;;;;2.20;100.00;101198.67;104481;1273;101420;-78
2024/03/21 05:33:43;;;;;;;72.90;40.30;;;;;;;2.23;100.00;101197.90;104425;1271;99137;-78
2024/03/21 05:36:29;;;;;;;66.70;37.30;;;;;;;2.26;100.00;101198.33;104643;1271;98061;-79
2024/03/21 05:39:14;;;;;;;69.50;38.10;;;;;;;2.29;100.00;101196.67;104665;1268;97912;-79
2024/03/21 05:42:00;;;;;;;77.20;40.10;;;;;;;2.32;100.00;101186.94;104617;1271;98503;-76
2024/03/21 05:44:45;;;;;;;72.30;39.20;;;;;;;2.35;100.00;101182.67;104671;1271;101413;-77
2024/03/21 05:47:31;;;;;;;67.50;39.10;;;;;;;2.37;100.00;101181.13;104743;1273;99176;-78
2024/03/21 05:50:16;;;;;;;79.10;40.20;;;;;;;2.38;100.00;101179.08;104581;1274;97980;-77
2024/03/21 05:53:01;;;;;;;72.10;38.40;;;;;;;2.40;100.00;101178.39;104629;1273;98058;-77
2024/03/21 05:55:57;;;;;;;73.20;39.00;;;;;;;2.43;100.00;101180.24;104674;1273;98014;-76
2024/03/21 05:58:46;;;;;;;72.20;39.70;;;;;;;2.47;100.00;101184.73;104584;1272;102031;-77
2024/03/21 06:01:34;;;;;;;75.30;41.80;;;;;;;2.50;100.00;101185.23;104615;1271;99160;-78
2024/03/21 06:04:21;;;;;;;76.10;44.70;;;;;;;2.52;100.00;101185.00;104596;1271;98249;-77
2024/03/21 06:07:06;;;;;;;74.30;42.60;;;;;;;2.57;100.00;101186.90;104614;1271;97989;-77
2024/03/21 06:09:52;;;;;;;81.60;41.90;;;;;;;2.63;100.00;101189.27;104648;1274;99592;-78
2024/03/21 06:12:37;;;;;;;82.50;42.40;;;;;;;2.67;100.00;101193.86;104681;1269;101489;-77
2024/03/21 06:15:22;;;;;;;73.60;37.00;;;;;;;2.72;100.00;101190.30;104668;1269;99190;-78
2024/03/21 06:18:08;;;;;;;81.00;40.70;;;;;;;2.77;100.00;101189.14;104659;1271;98681;-78
2024/03/21 06:20:54;;;;;;;75.10;40.20;;;;;;;2.83;100.00;101187.04;104799;1273;97992;-78
2024/03/21 06:23:39;;;;;;;77.30;40.60;;;;;;;2.92;100.00;101184.39;104733;1276;97861;-77
2024/03/21 06:26:24;;;;;;;77.30;41.50;;;;;;;3.03;100.00;101177.88;104581;1274;102580;-79
2024/03/21 06:29:12;;;;;;;75.20;40.60;;;;;;;3.15;100.00;101174.92;104625;1273;100209;-78
2024/03/21 06:31:58;;;;;;;69.90;39.10;;;;;;;3.27;100.00;101177.27;104633;1271;98952;-77
2024/03/21 06:34:44;;;;;;;73.10;39.10;;;;;;;3.37;100.00;101178.04;104751;1270;98760;-79
2024/03/21 06:37:31;;;;;;;75.50;41.10;;;;;;;3.45;100.00;101179.84;104639;1280;98517;-77
2024/03/21 06:40:17;;;;;;;75.20;40.90;;;;;;;3.51;100.00;101180.17;104929;1268;102642;-79
2024/03/21 06:43:02;;;;;;;74.60;42.10;;;;;;;3.60;100.00;101177.37;104672;1273;100378;-78
2024/03/21 06:45:55;;;;;;;67.10;37.10;;;;;;;3.69;100.00;101175.73;104678;1277;98062;-78
2024/03/21 06:48:40;;;;;;;68.80;37.50;;;;;;;3.79;100.00;101178.52;104649;1274;97982;-77
2024/03/21 06:51:26;;;;;;;65.20;36.60;;;;;;;3.91;100.00;101179.10;104693;1276;98416;-78
2024/03/21 06:54:12;;;;;;;62.80;36.60;;;;;;;4.03;100.00;101180.55;104626;1271;102595;-77
2024/03/21 06:56:58;;;;;;;73.70;39.00;;;;;;;4.15;100.00;101177.95;104564;1271;99064;-77
2024/03/21 06:59:43;;;;;;;65.30;37.40;;;;;;;4.24;100.00;101175.90;104594;1273;98879;-77
2024/03/21 07:02:29;;;;;;;64.50;36.90;;;;;;;4.32;100.00;101178.01;104528;1277;98062;-77
2024/03/21 07:05:14;;;;;;;63.30;35.30;;;;;;;4.39;100.00;101173.85;104716;1271;98590;-79
2024/03/21 07:08:01;;;;;;;59.60;34.40;;;;;;;4.47;100.00;101177.73;104618;1270;102251;-78
2024/03/21 07:10:49;;;;;;;66.80;37.10;;;;;;;4.57;100.00;101178.27;104622;1273;99148;-77
2024/03/21 07:13:35;;;;;;;60.20;36.20;;;;;;;4.67;100.00;101179.67;104451;1272;98135;-77
2024/03/21 07:16:20;;;;;;;59.30;35.70;;;;;;;4.78;100.00;101181.05;104539;1275;97998;-75
2024/03/21 07:19:06;;;;;;;60.90;34.50;;;;;;;4.88;100.00;101177.08;104537;1274;98516;-77
2024/03/21 07:21:51;;;;;;;56.00;32.80;;;;;;;5.00;100.00;101178.15;104652;1271;103269;-78
2024/03/21 07:24:37;;;;;;;60.60;35.60;;;;;;;5.14;100.00;101171.52;104498;1274;99975;-76
2024/03/21 07:27:23;;;;;;;51.20;31.20;;;;;;;5.29;100.00;101170.83;104567;1272;99160;-76
2024/03/21 07:30:11;;;;;;;53.80;32.50;;;;;;;5.44;100.00;101166.61;104522;1273;98315;-76
2024/03/21 07:32:57;;;;;;;51.80;30.70;;;;;;;5.63;100.00;101160.14;104377;1274;99698;-77
2024/03/21 07:35:42;;;;;;;51.50;30.80;;;;;;;5.82;100.00;101156.77;104453;1270;101362;-77
2024/03/21 07:38:28;;;;;;;53.90;30.70;;;;;;;6.01;100.00;101160.25;104548;1273;99331;-77
2024/03/21 07:41:13;;;;;;;42.20;26.50;;;;;;;6.22;100.00;101157.95;104540;1268;99026;-77
2024/03/21 07:44:02;;;;;;;48.70;29.20;;;;;;;6.39;100.00;101164.14;104694;1273;98058;-86
2024/03/21 07:46:47;;;;;;;49.70;29.70;;;;;;;6.53;100.00;101164.38;105576;1270;98432;-85
2024/03/21 07:49:34;;;;;;;43.10;27.00;;;;;;;6.67;100.00;101163.64;105823;1276;103823;-89
2024/03/21 07:52:21;;;;;;;43.10;25.60;;;;;;;6.83;100.00;101162.27;105559;1268;100369;-77
2024/03/21 07:55:07;;;;;;;42.80;25.50;;;;;;;6.97;100.00;101159.46;104808;1272;100158;-78
2024/03/21 07:57:52;;;;;;;38.70;23.70;;;;;;;7.08;100.00;101154.95;105389;1275;98039;-81
2024/03/21 08:00:39;;;;;;;37.90;23.80;;;;;;;7.18;100.00;101154.41;105760;1274;98926;-79
2024/03/21 08:03:24;;;;;;;35.10;22.60;;;;;;;7.26;100.00;101149.98;105741;1271;102750;-77
2024/03/21 08:06:10;;;;;;;34.40;21.30;;;;;;;7.33;100.00;101147.52;104571;1273;99937;-78
2024/03/21 08:08:56;;;;;;;33.90;21.00;;;;;;;7.40;100.00;101152.73;104431;1274;99656;-76
2024/03/21 08:11:41;;;;;;;31.80;20.50;;;;;;;7.49;100.00;101153.75;104403;1272;99256;-76
2024/03/21 08:14:27;;;;;;;29.40;20.10;;;;;;;7.58;100.00;101152.06;104452;1270;99176;-78
2024/03/21 08:17:12;;;;;;;32.20;20.00;;;;;;;7.70;100.00;101146.95;104784;1273;102627;-76
2024/03/21 08:19:58;;;;;;;30.80;19.30;;;;;;;7.82;100.00;101145.92;104602;1273;99145;-77
2024/03/21 08:22:43;;;;;;;26.90;17.50;;;;;;;7.90;100.00;101144.34;104663;1269;98921;-78
2024/03/21 08:25:29;;;;;;;27.60;17.60;;;;;;;7.98;100.00;101144.23;104654;1273;98026;-79
2024/03/21 08:28:14;;;;;;;28.60;19.20;;;;;;;8.04;100.00;101141.83;104626;1270;98109;-77
2024/03/21 08:31:00;;;;;;;24.50;17.30;;;;;;;8.10;100.00;101141.44;104614;1273;102398;-77
2024/03/21 08:33:45;;;;;;;25.40;17.50;;;;;;;8.15;100.00;101139.06;104941;1271;100374;-79
2024/03/21 08:36:31;;;;;;;26.00;16.60;;;;;;;8.20;100.00;101145.54;105009;1270;99018;-83
2024/03/21 08:39:17;;;;;;;29.40;18.10;;;;;;;8.24;100.00;101147.20;105112;1274;98022;-81
2024/03/21 08:42:03;;;;;;;26.70;18.30;;;;;;;8.31;100.00;101150.93;105064;1279;98590;-84
2024/03/21 08:44:49;;;;;;;26.60;17.10;;;;;;;8.38;100.00;101148.56;105335;1270;101424;-83
2024/03/21 08:47:36;;;;;;;26.80;18.20;;;;;;;8.45;100.00;101146.80;105301;1276;101354;-83
2024/03/21 08:50:21;;;;;;;26.70;17.00;;;;;;;8.52;100.00;101151.04;105617;1272;98896;-81
2024/03/21 08:53:07;;;;;;;31.40;18.60;;;;;;;8.62;100.00;101155.59;105531;1273;98077;-79
2024/03/21 08:55:52;;;;;;;25.70;17.70;;;;;;;8.71;100.00;101157.31;105520;1273;97994;-82
2024/03/21 08:58:38;;;;;;;27.80;18.50;;;;;;;8.79;100.00;101153.21;105457;1270;101335;-82
2024/03/21 09:01:23;;;;;;;30.40;18.50;;;;;;;8.87;99.60;101155.20;105554;1271;100532;-83
2024/03/21 09:04:08;;;;;;;26.50;17.70;;;;;;;8.96;99.13;101150.13;105252;1270;98129;-82
2024/03/21 09:06:53;;;;;;;29.70;18.30;;;;;;;9.04;98.74;101147.17;105403;1276;97709;-79
2024/03/21 09:09:38;;;;;;;24.90;17.80;;;;;;;9.11;98.74;101149.17;105313;1275;98498;-83
2024/03/21 09:12:25;;;;;;;27.50;17.70;;;;;;;9.20;98.74;101144.83;105406;1270;102653;-85
2024/03/21 09:15:13;;;;;;;26.20;17.90;;;;;;;9.27;97.82;101141.41;105186;1274;101496;-83
2024/03/21 09:17:59;;;;;;;26.00;18.40;;;;;;;9.35;97.20;101144.46;105511;1274;99936;-87
2024/03/21 09:20:46;;;;;;;24.30;17.20;;;;;;;9.41;96.64;101141.95;105353;1270;97946;-80
2024/03/21 09:23:32;;;;;;;28.10;19.00;;;;;;;9.49;95.77;101136.70;107110;1270;98287;-88
2024/03/21 09:26:19;;;;;;;23.80;17.70;;;;;;;9.56;95.48;101130.48;105262;1273;102706;-80
2024/03/21 09:29:05;;;;;;;27.00;18.50;;;;;;;9.64;94.80;101129.83;105140;1270;99382;-82
2024/03/21 09:31:51;;;;;;;25.10;17.60;;;;;;;9.71;94.60;101130.45;105639;1274;99011;-81
2024/03/21 09:34:36;;;;;;;27.90;18.30;;;;;;;9.78;94.63;101126.16;105394;1274;98110;-81
2024/03/21 09:37:23;;;;;;;28.30;18.90;;;;;;;9.85;94.04;101122.32;105223;1276;99626;-84
2024/03/21 09:40:12;;;;;;;32.60;19.70;;;;;;;9.92;93.54;101121.71;105501;1274;101391;-82
2024/03/21 09:42:59;;;;;;;32.20;20.60;;;;;;;9.99;93.31;101120.92;105397;1271;100357;-82
2024/03/21 09:45:46;;;;;;;27.00;18.50;;;;;;;10.05;93.19;101118.04;105474;1274;99071;-84
2024/03/21 09:48:32;;;;;;;28.20;18.10;;;;;;;10.12;93.10;101115.73;105278;1270;97934;-87
2024/03/21 09:51:25;;;;;;;29.50;18.80;;;;;;;10.21;93.27;101116.20;105260;1274;98075;-80
2024/03/21 09:54:12;;;;;;;28.20;18.60;;;;;;;10.30;93.04;101113.02;105865;1273;101354;-81
2024/03/21 09:56:58;;;;;;;28.80;18.90;;;;;;;10.38;92.47;101111.05;105190;1274;100532;-84
2024/03/21 09:59:44;;;;;;;24.80;17.70;;;;;;;10.45;92.54;101108.73;105094;1269;98337;-81
2024/03/21 10:02:29;;;;;;;32.00;19.30;;;;;;;10.52;92.26;101103.83;105521;1270;98201;-79
2024/03/21 10:05:22;;;;;;;26.30;18.80;;;;;;;10.59;91.66;101103.26;105304;1271;98462;-82
2024/03/21 10:08:08;;;;;;;25.70;18.00;;;;;;;10.66;91.42;101098.33;107226;1270;102661;-86
2024/03/21 10:10:53;;;;;;;27.70;18.60;;;;;;;10.73;90.81;101096.58;105318;1270;99034;-78
2024/03/21 10:13:41;;;;;;;26.70;19.20;;;;;;;10.80;89.93;101094.00;104602;1274;99252;-83
2024/03/21 10:16:29;;;;;;;25.60;18.60;;;;;;;10.87;89.90;101088.67;105402;1273;98009;-80
2024/03/21 10:19:15;;;;;;;24.30;18.20;;;;;;;10.96;89.40;101081.48;105085;1270;98072;-83
2024/03/21 10:22:00;;;;;;;26.20;19.00;;;;;;;11.03;89.04;101082.08;104589;1285;102543;-82
2024/03/21 10:24:57;;;;;;;30.80;19.50;;;;;;;11.08;87.91;101079.25;105078;1270;99145;-84
2024/03/21 10:27:46;;;;;;;24.80;18.20;;;;;;;11.12;87.93;101078.66;105040;1270;97999;-82
2024/03/21 10:30:33;;;;;;;29.70;21.10;;;;;;;11.14;88.00;101074.32;105640;1273;98331;-86
2024/03/21 10:33:19;;;;;;;29.90;19.20;;;;;;;11.18;87.55;101076.34;105445;1270;98112;-84
2024/03/21 10:36:10;;;;;;;26.40;18.50;;;;;;;11.21;87.22;101073.42;105392;1276;102509;-81
2024/03/21 10:38:58;;;;;;;29.80;19.10;;;;;;;11.25;86.64;101076.23;105358;1273;109013;-84
2024/03/21 10:41:45;;;;;;;28.90;20.20;;;;;;;11.26;86.93;101073.02;105119;1269;98985;-85
2024/03/21 10:44:32;;;;;;;29.60;19.70;;;;;;;11.28;86.49;101070.71;105201;1276;98071;-84
2024/03/21 10:47:17;;;;;;;27.60;19.00;;;;;;;11.30;85.59;101070.08;105430;1270;99591;-85
2024/03/21 10:50:04;;;;;;;28.40;19.20;;;;;;;11.32;84.82;101073.38;104986;1284;174622;-81
2024/03/21 10:52:53;;;;;;;29.20;18.90;;;;;;;11.35;84.93;101071.40;105391;1274;101155;-83
2024/03/21 10:55:45;;;;;;;32.50;19.00;;;;;;;11.39;84.92;101070.27;105246;1271;100117;-82
2024/03/21 10:58:30;;;;;;;;;;;;;;;11.43;84.17;101068.66;105170;1270;98687;-82
2024/03/21 11:01:15;;;;;;;28.80;17.80;;;;;;;11.45;83.67;101068.83;105178;1274;98465;-83
2024/03/21 11:04:03;;;;;;;27.60;20.00;;;;;;;11.48;83.32;101068.98;105146;1273;102734;-83
2024/03/21 11:06:51;;;;;;;28.20;19.00;;;;;;;11.51;83.32;101070.36;105026;1270;99140;-83
2024/03/21 11:09:36;;;;;;;25.90;18.30;;;;;;;11.55;83.48;101070.13;105823;1270;98447;-86
2024/03/21 11:12:22;;;;;;;28.10;18.40;;;;;;;11.58;83.18;101068.42;105277;1271;97811;-83
2024/03/21 11:15:08;;;;;;;27.10;19.40;;;;;;;11.64;82.63;101064.95;105231;1270;98440;-85
2024/03/21 11:17:53;;;;;;;29.00;19.90;;;;;;;11.69;82.65;101064.18;105194;1274;101530;-83
2024/03/21 11:20:39;;;;;;;25.50;18.30;;;;;;;11.73;82.53;101056.66;105349;1270;100553;-83
2024/03/21 11:23:25;;;;;;;25.30;19.10;;;;;;;11.78;82.44;101054.30;105449;1273;99417;-86
2024/03/21 11:26:14;;;;;;;29.30;19.10;;;;;;;11.82;81.98;101053.50;105578;1270;98540;-86
2024/03/21 11:29:02;;;;;;;27.10;19.50;;;;;;;11.87;81.81;101056.59;105075;1268;96486;-84
2024/03/21 11:31:50;;;;;;;28.50;19.40;;;;;;;11.92;81.75;101053.84;105352;1270;102474;-87
2024/03/21 11:34:39;;;;;;;30.50;20.50;;;;;;;11.95;80.86;101049.19;105306;1273;100549;-88
2024/03/21 11:37:25;;;;;;;27.10;20.10;;;;;;;11.97;80.71;101044.40;104902;1268;99296;-84
2024/03/21 11:40:12;;;;;;;30.00;19.70;;;;;;;12.01;80.77;101041.17;105187;1269;98113;-83
2024/03/21 11:43:07;;;;;;;26.30;19.10;;;;;;;12.05;80.70;101036.33;105038;1275;97950;-83
2024/03/21 11:45:53;;;;;;;33.60;20.90;;;;;;;12.08;80.61;101038.22;104964;1271;102610;-85
2024/03/21 11:48:40;;;;;;;30.00;20.50;;;;;;;12.12;80.35;101042.33;105183;1269;101304;-85
2024/03/21 11:51:25;;;;;;;30.90;21.50;;;;;;;12.12;79.33;101041.52;105106;1270;97921;-85
2024/03/21 11:54:15;;;;;;;29.10;20.50;;;;;;;12.14;79.24;101040.17;105124;1276;98100;-85
2024/03/21 11:57:01;;;;;;;31.50;21.40;;;;;;;12.18;79.29;101039.59;105101;1268;98538;-84
2024/03/21 11:59:49;;;;;;;34.00;22.90;;;;;;;12.22;79.67;101039.80;105279;1269;103806;-85
2024/03/21 12:02:35;;;;;;;30.00;20.80;;;;;;;12.26;78.90;101037.85;105151;1274;101395;-83
2024/03/21 12:05:21;;;;;;;28.10;19.90;;;;;;;12.30;78.76;101034.14;105072;1276;99055;-85
2024/03/21 12:08:08;;;;;;;30.60;20.70;;;;;;;12.35;78.68;101030.15;105108;1270;98111;-84
2024/03/21 12:10:53;;;;;;;30.10;20.40;;;;;;;12.39;78.83;101026.15;105922;1270;96103;-88
2024/03/21 12:13:41;;;;;;;33.60;22.10;;;;;;;12.44;78.51;101022.19;105528;1269;101541;-79
2024/03/21 12:16:26;;;;;;;31.30;22.60;;;;;;;12.48;77.88;101017.29;105115;1273;100501;-86
2024/03/21 12:19:12;;;;;;;33.70;22.80;;;;;;;12.50;77.64;101015.71;105273;1276;99403;-85
2024/03/21 12:21:58;;;;;;;30.40;21.90;;;;;;;12.54;77.15;101010.58;105385;1275;98174;-86
2024/03/21 12:24:44;;;;;;;30.70;21.50;;;;;;;12.59;77.02;101013.92;105224;1276;98072;-85
2024/03/21 12:27:30;;;;;;;30.70;21.60;;;;;;;12.62;76.68;101012.60;105119;1273;102578;-84